sensor_id;sensor_type;location;lat;lon;timestamp;temperature;humidity
20182;DHT22;10250;50.756;6.172;2024-02-21T00:00:02;7.90;99.90
20182;DHT22;10250;50.756;6.172;2024-02-21T00:02:03;7.90;99.90
20182;DHT22;10250;50.756;6.172;2024-02-21T00:04:04;7.90;99.90
20182;DHT22;10250;50.756;6.172;2024-02-21T00:06:06;7.90;99.90
20182;DHT22;10250;50.756;6.172;2024-02-21T00:08:06;7.90;99.90
20182;DHT22;10250;50.756;6.172;2024-02-21T00:10:07;7.90;99.90
20182;DHT22;10250;50.756;6.172;2024-02-21T00:12:09;7.80;99.90
20182;DHT22;10250;50.756;6.172;2024-02-21T00:14:09;7.80;99.90
20182;DHT22;10250;50.756;6.172;2024-02-21T00:16:10;7.80;99.90
20182;DHT22;10250;50.756;6.172;2024-02-21T00:18:11;7.80;99.90
20182;DHT22;10250;50.756;6.172;2024-02-21T00:20:13;7.70;99.90
20182;DHT22;10250;50.756;6.172;2024-02-21T00:22:13;7.80;99.90
20182;DHT22;10250;50.756;6.172;2024-02-21T00:24:14;7.80;99.90
20182;DHT22;10250;50.756;6.172;2024-02-21T00:26:15;7.70;99.90
20182;DHT22;10250;50.756;6.172;2024-02-21T00:28:15;7.80;99.90
20182;DHT22;10250;50.756;6.172;2024-02-21T00:30:16;7.70;99.90
20182;DHT22;10250;50.756;6.172;2024-02-21T00:32:16;7.70;99.90
20182;DHT22;10250;50.756;6.172;2024-02-21T00:34:17;7.80;99.90
20182;DHT22;10250;50.756;6.172;2024-02-21T00:36:17;7.80;99.90
20182;DHT22;10250;50.756;6.172;2024-02-21T00:38:18;7.80;99.90
20182;DHT22;10250;50.756;6.172;2024-02-21T00:40:19;7.80;99.90
20182;DHT22;10250;50.756;6.172;2024-02-21T00:42:20;7.70;99.90
20182;DHT22;10250;50.756;6.172;2024-02-21T00:44:21;7.70;99.90
20182;DHT22;10250;50.756;6.172;2024-02-21T00:46:22;7.70;99.90
20182;DHT22;10250;50.756;6.172;2024-02-21T00:48:22;7.70;99.90
20182;DHT22;10250;50.756;6.172;2024-02-21T00:50:23;7.70;99.90
20182;DHT22;10250;50.756;6.172;2024-02-21T00:52:23;7.70;99.90
20182;DHT22;10250;50.756;6.172;2024-02-21T00:54:24;7.70;99.90
20182;DHT22;10250;50.756;6.172;2024-02-21T00:56:25;7.80;96.40
20182;DHT22;10250;50.756;6.172;2024-02-21T00:58:25;7.70;99.90
20182;DHT22;10250;50.756;6.172;2024-02-21T01:00:26;7.70;98.30
20182;DHT22;10250;50.756;6.172;2024-02-21T01:02:26;7.70;99.90
20182;DHT22;10250;50.756;6.172;2024-02-21T01:04:27;7.80;99.90
20182;DHT22;10250;50.756;6.172;2024-02-21T01:06:28;7.80;92.30
20182;DHT22;10250;50.756;6.172;2024-02-21T01:08:28;7.70;98.70
20182;DHT22;10250;50.756;6.172;2024-02-21T01:10:29;7.70;99.90
20182;DHT22;10250;50.756;6.172;2024-02-21T01:12:30;7.70;92.80
20182;DHT22;10250;50.756;6.172;2024-02-21T01:14:30;7.70;97.40
20182;DHT22;10250;50.756;6.172;2024-02-21T01:16:31;7.70;99.90
20182;DHT22;10250;50.756;6.172;2024-02-21T01:18:37;7.70;99.90
20182;DHT22;10250;50.756;6.172;2024-02-21T01:20:38;7.70;99.90
20182;DHT22;10250;50.756;6.172;2024-02-21T01:22:38;7.70;99.90
20182;DHT22;10250;50.756;6.172;2024-02-21T01:24:39;7.70;98.90
20182;DHT22;10250;50.756;6.172;2024-02-21T01:26:40;7.70;99.90
20182;DHT22;10250;50.756;6.172;2024-02-21T01:28:41;7.70;99.90
20182;DHT22;10250;50.756;6.172;2024-02-21T01:30:42;7.70;99.90
20182;DHT22;10250;50.756;6.172;2024-02-21T01:32:43;7.70;99.90
20182;DHT22;10250;50.756;6.172;2024-02-21T01:34:43;7.70;99.90
20182;DHT22;10250;50.756;6.172;2024-02-21T01:36:44;7.70;99.90
20182;DHT22;10250;50.756;6.172;2024-02-21T01:38:44;7.70;99.90
20182;DHT22;10250;50.756;6.172;2024-02-21T01:40:45;7.70;99.90
20182;DHT22;10250;50.756;6.172;2024-02-21T01:42:45;7.70;99.90
20182;DHT22;10250;50.756;6.172;2024-02-21T01:44:48;7.70;99.90
20182;DHT22;10250;50.756;6.172;2024-02-21T01:46:48;7.70;99.90
20182;DHT22;10250;50.756;6.172;2024-02-21T01:48:49;7.70;99.90
20182;DHT22;10250;50.756;6.172;2024-02-21T01:50:50;7.70;99.90
20182;DHT22;10250;50.756;6.172;2024-02-21T01:52:51;7.80;99.90
20182;DHT22;10250;50.756;6.172;2024-02-21T01:54:59;7.80;99.90
20182;DHT22;10250;50.756;6.172;2024-02-21T01:57:00;7.80;99.90
20182;DHT22;10250;50.756;6.172;2024-02-21T01:59:01;7.80;99.90
20182;DHT22;10250;50.756;6.172;2024-02-21T02:01:02;7.70;99.90
20182;DHT22;10250;50.756;6.172;2024-02-21T02:03:02;7.70;99.90
20182;DHT22;10250;50.756;6.172;2024-02-21T02:05:04;7.70;98.30
20182;DHT22;10250;50.756;6.172;2024-02-21T02:07:06;7.70;96.30
20182;DHT22;10250;50.756;6.172;2024-02-21T02:09:07;7.80;98.20
20182;DHT22;10250;50.756;6.172;2024-02-21T02:11:08;7.80;97.70
20182;DHT22;10250;50.756;6.172;2024-02-21T02:13:09;7.80;99.90
20182;DHT22;10250;50.756;6.172;2024-02-21T02:15:09;7.80;90.70
20182;DHT22;10250;50.756;6.172;2024-02-21T02:17:10;7.80;99.90
20182;DHT22;10250;50.756;6.172;2024-02-21T02:19:11;7.80;92.90
20182;DHT22;10250;50.756;6.172;2024-02-21T02:21:32;7.80;99.50
20182;DHT22;10250;50.756;6.172;2024-02-21T02:23:34;7.80;92.30
20182;DHT22;10250;50.756;6.172;2024-02-21T02:25:36;7.80;81.80
20182;DHT22;10250;50.756;6.172;2024-02-21T02:27:44;7.80;93.50
20182;DHT22;10250;50.756;6.172;2024-02-21T02:29:45;7.80;88.20
20182;DHT22;10250;50.756;6.172;2024-02-21T02:31:46;7.80;95.00
20182;DHT22;10250;50.756;6.172;2024-02-21T02:33:46;7.90;95.10
20182;DHT22;10250;50.756;6.172;2024-02-21T02:35:48;7.80;88.90
20182;DHT22;10250;50.756;6.172;2024-02-21T02:37:49;7.90;93.70
20182;DHT22;10250;50.756;6.172;2024-02-21T02:39:50;7.80;87.20
20182;DHT22;10250;50.756;6.172;2024-02-21T02:41:51;7.80;89.20
20182;DHT22;10250;50.756;6.172;2024-02-21T02:43:51;7.80;87.50
20182;DHT22;10250;50.756;6.172;2024-02-21T02:45:52;7.80;92.00
20182;DHT22;10250;50.756;6.172;2024-02-21T02:47:53;7.80;91.90
20182;DHT22;10250;50.756;6.172;2024-02-21T02:50:00;7.80;80.10
20182;DHT22;10250;50.756;6.172;2024-02-21T02:52:00;7.80;85.30
20182;DHT22;10250;50.756;6.172;2024-02-21T02:54:02;7.80;75.80
20182;DHT22;10250;50.756;6.172;2024-02-21T02:56:03;7.80;81.10
20182;DHT22;10250;50.756;6.172;2024-02-21T02:58:04;7.80;75.30
20182;DHT22;10250;50.756;6.172;2024-02-21T03:00:05;7.70;83.00
20182;DHT22;10250;50.756;6.172;2024-02-21T03:02:07;7.80;84.00
20182;DHT22;10250;50.756;6.172;2024-02-21T03:04:07;7.70;75.40
20182;DHT22;10250;50.756;6.172;2024-02-21T03:06:08;7.70;79.80
20182;DHT22;10250;50.756;6.172;2024-02-21T03:08:08;7.80;69.70
20182;DHT22;10250;50.756;6.172;2024-02-21T03:10:10;7.80;65.50
20182;DHT22;10250;50.756;6.172;2024-02-21T03:12:11;7.80;68.00
20182;DHT22;10250;50.756;6.172;2024-02-21T03:14:11;7.80;76.00
20182;DHT22;10250;50.756;6.172;2024-02-21T03:16:12;7.70;69.80
20182;DHT22;10250;50.756;6.172;2024-02-21T03:18:13;7.70;60.70
20182;DHT22;10250;50.756;6.172;2024-02-21T03:20:13;7.80;54.70
20182;DHT22;10250;50.756;6.172;2024-02-21T03:22:14;7.70;53.70
20182;DHT22;10250;50.756;6.172;2024-02-21T03:24:15;7.70;47.00
20182;DHT22;10250;50.756;6.172;2024-02-21T03:26:15;7.70;52.30
20182;DHT22;10250;50.756;6.172;2024-02-21T03:28:17;7.70;53.70
20182;DHT22;10250;50.756;6.172;2024-02-21T03:30:18;7.70;54.10
20182;DHT22;10250;50.756;6.172;2024-02-21T03:32:18;7.80;56.80
20182;DHT22;10250;50.756;6.172;2024-02-21T03:34:19;7.80;25.50
20182;DHT22;10250;50.756;6.172;2024-02-21T03:36:19;7.80;28.40
20182;DHT22;10250;50.756;6.172;2024-02-21T03:38:20;7.80;21.00
20182;DHT22;10250;50.756;6.172;2024-02-21T03:40:21;7.80;10.20
20182;DHT22;10250;50.756;6.172;2024-02-21T03:42:21;7.80;14.40
20182;DHT22;10250;50.756;6.172;2024-02-21T03:44:22;7.80;15.70
20182;DHT22;10250;50.756;6.172;2024-02-21T03:46:24;7.80;1.00
20182;DHT22;10250;50.756;6.172;2024-02-21T03:48:25;7.80;1.00
20182;DHT22;10250;50.756;6.172;2024-02-21T03:50:25;7.70;1.00
20182;DHT22;10250;50.756;6.172;2024-02-21T03:52:28;7.80;1.00
20182;DHT22;10250;50.756;6.172;2024-02-21T03:54:28;7.70;1.00
20182;DHT22;10250;50.756;6.172;2024-02-21T03:56:29;7.70;1.00
20182;DHT22;10250;50.756;6.172;2024-02-21T03:58:33;7.80;1.00
20182;DHT22;10250;50.756;6.172;2024-02-21T04:00:33;7.80;1.00
20182;DHT22;10250;50.756;6.172;2024-02-21T04:02:34;7.80;1.00
20182;DHT22;10250;50.756;6.172;2024-02-21T04:04:37;7.70;8.70
20182;DHT22;10250;50.756;6.172;2024-02-21T04:06:51;7.70;14.60
20182;DHT22;10250;50.756;6.172;2024-02-21T04:08:52;7.70;13.00
20182;DHT22;10250;50.756;6.172;2024-02-21T04:10:52;7.70;18.60
20182;DHT22;10250;50.756;6.172;2024-02-21T04:12:53;7.70;21.50
20182;DHT22;10250;50.756;6.172;2024-02-21T04:14:54;7.70;29.00
20182;DHT22;10250;50.756;6.172;2024-02-21T04:16:54;7.70;21.00
20182;DHT22;10250;50.756;6.172;2024-02-21T04:18:55;7.70;27.20
20182;DHT22;10250;50.756;6.172;2024-02-21T04:20:55;7.70;38.10
20182;DHT22;10250;50.756;6.172;2024-02-21T04:22:56;7.70;33.20
20182;DHT22;10250;50.756;6.172;2024-02-21T04:24:57;7.70;30.40
20182;DHT22;10250;50.756;6.172;2024-02-21T04:26:58;7.80;39.20
20182;DHT22;10250;50.756;6.172;2024-02-21T04:28:58;7.80;30.00
20182;DHT22;10250;50.756;6.172;2024-02-21T04:30:59;7.80;20.50
20182;DHT22;10250;50.756;6.172;2024-02-21T04:32:59;7.70;29.00
20182;DHT22;10250;50.756;6.172;2024-02-21T04:35:00;7.80;32.40
20182;DHT22;10250;50.756;6.172;2024-02-21T04:37:01;7.90;18.60
20182;DHT22;10250;50.756;6.172;2024-02-21T04:39:01;7.90;10.50
20182;DHT22;10250;50.756;6.172;2024-02-21T04:41:02;7.90;1.00
20182;DHT22;10250;50.756;6.172;2024-02-21T04:43:03;7.80;13.10
20182;DHT22;10250;50.756;6.172;2024-02-21T04:45:04;7.90;11.90
20182;DHT22;10250;50.756;6.172;2024-02-21T04:47:04;7.90;12.90
20182;DHT22;10250;50.756;6.172;2024-02-21T04:49:05;7.90;21.00
20182;DHT22;10250;50.756;6.172;2024-02-21T04:51:06;7.90;21.30
20182;DHT22;10250;50.756;6.172;2024-02-21T04:53:06;7.90;11.00
20182;DHT22;10250;50.756;6.172;2024-02-21T04:55:07;7.80;20.80
20182;DHT22;10250;50.756;6.172;2024-02-21T04:57:08;7.90;22.90
20182;DHT22;10250;50.756;6.172;2024-02-21T04:59:10;7.80;20.00
20182;DHT22;10250;50.756;6.172;2024-02-21T05:01:11;7.80;22.90
20182;DHT22;10250;50.756;6.172;2024-02-21T05:03:11;7.80;36.30
20182;DHT22;10250;50.756;6.172;2024-02-21T05:05:12;7.90;28.90
20182;DHT22;10250;50.756;6.172;2024-02-21T05:07:14;7.90;33.40
20182;DHT22;10250;50.756;6.172;2024-02-21T05:09:15;7.90;15.00
20182;DHT22;10250;50.756;6.172;2024-02-21T05:11:16;7.90;6.10
20182;DHT22;10250;50.756;6.172;2024-02-21T05:13:16;7.80;15.70
20182;DHT22;10250;50.756;6.172;2024-02-21T05:15:17;7.80;24.20
20182;DHT22;10250;50.756;6.172;2024-02-21T05:17:17;7.80;27.20
20182;DHT22;10250;50.756;6.172;2024-02-21T05:19:18;7.90;17.20
20182;DHT22;10250;50.756;6.172;2024-02-21T05:21:19;7.80;21.50
20182;DHT22;10250;50.756;6.172;2024-02-21T05:23:19;7.90;19.80
20182;DHT22;10250;50.756;6.172;2024-02-21T05:25:20;7.80;19.60
20182;DHT22;10250;50.756;6.172;2024-02-21T05:27:20;7.80;19.40
20182;DHT22;10250;50.756;6.172;2024-02-21T05:29:21;7.80;23.80
20182;DHT22;10250;50.756;6.172;2024-02-21T05:31:22;7.90;28.70
20182;DHT22;10250;50.756;6.172;2024-02-21T05:33:22;7.90;16.20
20182;DHT22;10250;50.756;6.172;2024-02-21T05:35:29;7.90;6.50
20182;DHT22;10250;50.756;6.172;2024-02-21T05:37:29;7.90;14.80
20182;DHT22;10250;50.756;6.172;2024-02-21T05:39:30;7.90;1.00
20182;DHT22;10250;50.756;6.172;2024-02-21T05:41:31;7.90;7.40
20182;DHT22;10250;50.756;6.172;2024-02-21T05:43:31;7.90;13.70
20182;DHT22;10250;50.756;6.172;2024-02-21T05:45:33;7.80;1.00
20182;DHT22;10250;50.756;6.172;2024-02-21T05:47:34;7.80;15.40
20182;DHT22;10250;50.756;6.172;2024-02-21T05:49:35;7.80;14.50
20182;DHT22;10250;50.756;6.172;2024-02-21T05:51:36;7.80;19.30
20182;DHT22;10250;50.756;6.172;2024-02-21T05:53:36;7.80;16.10
20182;DHT22;10250;50.756;6.172;2024-02-21T05:55:41;7.90;5.20
20182;DHT22;10250;50.756;6.172;2024-02-21T05:57:41;7.90;3.90
20182;DHT22;10250;50.756;6.172;2024-02-21T05:59:42;7.90;3.80
20182;DHT22;10250;50.756;6.172;2024-02-21T06:01:44;7.90;1.00
20182;DHT22;10250;50.756;6.172;2024-02-21T06:03:44;7.80;1.00
20182;DHT22;10250;50.756;6.172;2024-02-21T06:05:45;7.80;10.50
20182;DHT22;10250;50.756;6.172;2024-02-21T06:07:46;7.80;12.80
20182;DHT22;10250;50.756;6.172;2024-02-21T06:09:46;7.80;9.20
20182;DHT22;10250;50.756;6.172;2024-02-21T06:11:47;7.80;1.00
20182;DHT22;10250;50.756;6.172;2024-02-21T06:13:49;7.80;1.00
20182;DHT22;10250;50.756;6.172;2024-02-21T06:15:50;7.80;1.00
20182;DHT22;10250;50.756;6.172;2024-02-21T06:17:51;7.80;1.00
20182;DHT22;10250;50.756;6.172;2024-02-21T06:19:51;7.80;1.00
20182;DHT22;10250;50.756;6.172;2024-02-21T06:21:52;7.80;1.00
20182;DHT22;10250;50.756;6.172;2024-02-21T06:23:52;7.80;1.00
20182;DHT22;10250;50.756;6.172;2024-02-21T06:25:53;7.80;1.00
20182;DHT22;10250;50.756;6.172;2024-02-21T06:27:53;7.80;1.00
20182;DHT22;10250;50.756;6.172;2024-02-21T06:29:54;7.80;1.00
20182;DHT22;10250;50.756;6.172;2024-02-21T06:31:54;7.80;1.00
20182;DHT22;10250;50.756;6.172;2024-02-21T06:33:55;7.70;1.00
20182;DHT22;10250;50.756;6.172;2024-02-21T06:35:56;7.80;1.00
20182;DHT22;10250;50.756;6.172;2024-02-21T06:37:57;7.80;1.00
20182;DHT22;10250;50.756;6.172;2024-02-21T06:39:58;7.70;1.00
20182;DHT22;10250;50.756;6.172;2024-02-21T06:41:59;7.70;1.00
20182;DHT22;10250;50.756;6.172;2024-02-21T06:44:00;7.70;1.00
20182;DHT22;10250;50.756;6.172;2024-02-21T06:46:00;7.70;1.00
20182;DHT22;10250;50.756;6.172;2024-02-21T06:48:02;7.80;1.00
20182;DHT22;10250;50.756;6.172;2024-02-21T06:50:03;7.70;1.00
20182;DHT22;10250;50.756;6.172;2024-02-21T06:52:06;7.70;1.00
20182;DHT22;10250;50.756;6.172;2024-02-21T06:54:07;7.70;1.00
20182;DHT22;10250;50.756;6.172;2024-02-21T06:56:07;7.70;1.00
20182;DHT22;10250;50.756;6.172;2024-02-21T06:58:08;7.70;1.00
20182;DHT22;10250;50.756;6.172;2024-02-21T07:00:12;7.70;1.00
20182;DHT22;10250;50.756;6.172;2024-02-21T07:02:13;7.80;1.00
20182;DHT22;10250;50.756;6.172;2024-02-21T07:04:13;7.80;1.00
20182;DHT22;10250;50.756;6.172;2024-02-21T07:06:15;7.80;1.00
20182;DHT22;10250;50.756;6.172;2024-02-21T07:08:15;7.80;1.00
20182;DHT22;10250;50.756;6.172;2024-02-21T07:10:16;7.70;1.00
20182;DHT22;10250;50.756;6.172;2024-02-21T07:12:16;7.70;1.00
20182;DHT22;10250;50.756;6.172;2024-02-21T07:14:18;7.60;1.00
20182;DHT22;10250;50.756;6.172;2024-02-21T07:16:19;7.70;1.00
20182;DHT22;10250;50.756;6.172;2024-02-21T07:18:19;7.70;1.00
20182;DHT22;10250;50.756;6.172;2024-02-21T07:20:20;7.70;1.00
20182;DHT22;10250;50.756;6.172;2024-02-21T07:22:21;7.60;1.00
20182;DHT22;10250;50.756;6.172;2024-02-21T07:24:21;7.60;1.00
20182;DHT22;10250;50.756;6.172;2024-02-21T07:26:22;7.60;1.00
20182;DHT22;10250;50.756;6.172;2024-02-21T07:28:22;7.60;1.00
20182;DHT22;10250;50.756;6.172;2024-02-21T07:30:23;7.60;1.00
20182;DHT22;10250;50.756;6.172;2024-02-21T07:32:23;7.60;1.00
20182;DHT22;10250;50.756;6.172;2024-02-21T07:34:24;7.60;1.00
20182;DHT22;10250;50.756;6.172;2024-02-21T07:36:29;7.60;1.00
20182;DHT22;10250;50.756;6.172;2024-02-21T07:38:30;7.60;1.00
20182;DHT22;10250;50.756;6.172;2024-02-21T07:40:31;7.60;1.00
20182;DHT22;10250;50.756;6.172;2024-02-21T07:42:31;7.60;1.00
20182;DHT22;10250;50.756;6.172;2024-02-21T07:44:32;7.60;1.00
20182;DHT22;10250;50.756;6.172;2024-02-21T07:46:33;7.60;1.00
20182;DHT22;10250;50.756;6.172;2024-02-21T07:48:33;7.60;1.00
20182;DHT22;10250;50.756;6.172;2024-02-21T07:50:34;7.60;1.00
20182;DHT22;10250;50.756;6.172;2024-02-21T07:52:34;7.60;1.00
20182;DHT22;10250;50.756;6.172;2024-02-21T07:54:35;7.60;1.00
20182;DHT22;10250;50.756;6.172;2024-02-21T07:56:35;7.60;1.00
20182;DHT22;10250;50.756;6.172;2024-02-21T07:58:36;7.60;1.00
20182;DHT22;10250;50.756;6.172;2024-02-21T08:00:36;7.60;1.00
20182;DHT22;10250;50.756;6.172;2024-02-21T08:02:37;7.60;1.00
20182;DHT22;10250;50.756;6.172;2024-02-21T08:04:38;7.60;1.00
20182;DHT22;10250;50.756;6.172;2024-02-21T08:06:38;7.60;99.90
20182;DHT22;10250;50.756;6.172;2024-02-21T08:08:39;7.60;99.90
20182;DHT22;10250;50.756;6.172;2024-02-21T08:10:40;7.60;99.90
20182;DHT22;10250;50.756;6.172;2024-02-21T08:12:40;7.60;99.90
20182;DHT22;10250;50.756;6.172;2024-02-21T08:14:41;7.60;99.90
20182;DHT22;10250;50.756;6.172;2024-02-21T08:16:42;7.60;5.60
20182;DHT22;10250;50.756;6.172;2024-02-21T08:18:46;7.60;1.00
20182;DHT22;10250;50.756;6.172;2024-02-21T08:20:46;7.60;1.00
20182;DHT22;10250;50.756;6.172;2024-02-21T08:22:47;7.70;1.00
20182;DHT22;10250;50.756;6.172;2024-02-21T08:24:47;7.70;1.00
20182;DHT22;10250;50.756;6.172;2024-02-21T08:26:48;7.80;1.00
20182;DHT22;10250;50.756;6.172;2024-02-21T08:28:48;7.80;1.00
20182;DHT22;10250;50.756;6.172;2024-02-21T08:30:50;7.80;99.90
20182;DHT22;10250;50.756;6.172;2024-02-21T08:32:51;7.80;99.90
20182;DHT22;10250;50.756;6.172;2024-02-21T08:34:51;7.80;99.90
20182;DHT22;10250;50.756;6.172;2024-02-21T08:36:52;7.90;99.90
20182;DHT22;10250;50.756;6.172;2024-02-21T08:38:52;7.80;1.00
20182;DHT22;10250;50.756;6.172;2024-02-21T08:40:53;7.90;99.90
20182;DHT22;10250;50.756;6.172;2024-02-21T08:42:53;7.80;99.90
20182;DHT22;10250;50.756;6.172;2024-02-21T08:44:54;7.80;99.90
20182;DHT22;10250;50.756;6.172;2024-02-21T08:46:55;7.90;1.00
20182;DHT22;10250;50.756;6.172;2024-02-21T08:48:55;7.90;1.00
20182;DHT22;10250;50.756;6.172;2024-02-21T08:50:56;7.90;1.00
20182;DHT22;10250;50.756;6.172;2024-02-21T08:53:02;7.90;1.00
20182;DHT22;10250;50.756;6.172;2024-02-21T08:55:02;8.00;1.00
20182;DHT22;10250;50.756;6.172;2024-02-21T08:57:03;8.00;1.00
20182;DHT22;10250;50.756;6.172;2024-02-21T08:59:04;8.00;1.00
20182;DHT22;10250;50.756;6.172;2024-02-21T09:01:04;8.00;1.00
20182;DHT22;10250;50.756;6.172;2024-02-21T09:03:05;8.00;1.00
20182;DHT22;10250;50.756;6.172;2024-02-21T09:05:06;8.00;57.30
20182;DHT22;10250;50.756;6.172;2024-02-21T09:07:07;8.00;1.00
20182;DHT22;10250;50.756;6.172;2024-02-21T09:09:10;8.00;1.00
20182;DHT22;10250;50.756;6.172;2024-02-21T09:11:11;8.00;1.00
20182;DHT22;10250;50.756;6.172;2024-02-21T09:13:12;8.00;1.00
20182;DHT22;10250;50.756;6.172;2024-02-21T09:15:13;8.10;1.00
20182;DHT22;10250;50.756;6.172;2024-02-21T09:17:13;8.20;1.00
20182;DHT22;10250;50.756;6.172;2024-02-21T09:19:15;8.10;1.00
20182;DHT22;10250;50.756;6.172;2024-02-21T09:21:15;8.20;1.00
20182;DHT22;10250;50.756;6.172;2024-02-21T09:23:16;8.20;1.00
20182;DHT22;10250;50.756;6.172;2024-02-21T09:25:17;8.20;1.00
20182;DHT22;10250;50.756;6.172;2024-02-21T09:27:17;8.20;1.00
20182;DHT22;10250;50.756;6.172;2024-02-21T09:29:18;8.30;1.00
20182;DHT22;10250;50.756;6.172;2024-02-21T09:31:18;8.30;1.00
20182;DHT22;10250;50.756;6.172;2024-02-21T09:33:20;8.30;1.00
20182;DHT22;10250;50.756;6.172;2024-02-21T09:35:20;8.30;1.00
20182;DHT22;10250;50.756;6.172;2024-02-21T09:37:24;8.30;1.00
20182;DHT22;10250;50.756;6.172;2024-02-21T09:39:24;8.30;1.00
20182;DHT22;10250;50.756;6.172;2024-02-21T09:41:26;8.30;1.00
20182;DHT22;10250;50.756;6.172;2024-02-21T09:43:30;8.30;1.00
20182;DHT22;10250;50.756;6.172;2024-02-21T09:45:31;8.30;1.00
20182;DHT22;10250;50.756;6.172;2024-02-21T09:47:55;8.30;1.00
20182;DHT22;10250;50.756;6.172;2024-02-21T09:50:00;8.30;1.00
20182;DHT22;10250;50.756;6.172;2024-02-21T09:52:02;8.30;1.00
20182;DHT22;10250;50.756;6.172;2024-02-21T09:54:04;8.30;1.00
20182;DHT22;10250;50.756;6.172;2024-02-21T09:56:07;8.30;1.00
20182;DHT22;10250;50.756;6.172;2024-02-21T09:58:09;8.30;1.00
20182;DHT22;10250;50.756;6.172;2024-02-21T10:00:10;8.40;1.00
20182;DHT22;10250;50.756;6.172;2024-02-21T10:02:11;8.40;1.00
20182;DHT22;10250;50.756;6.172;2024-02-21T10:04:13;8.40;1.00
20182;DHT22;10250;50.756;6.172;2024-02-21T10:06:13;8.40;1.00
20182;DHT22;10250;50.756;6.172;2024-02-21T10:08:14;8.40;1.00
20182;DHT22;10250;50.756;6.172;2024-02-21T10:10:15;8.40;1.00
20182;DHT22;10250;50.756;6.172;2024-02-21T10:12:16;8.40;1.00
20182;DHT22;10250;50.756;6.172;2024-02-21T10:14:19;8.50;1.00
20182;DHT22;10250;50.756;6.172;2024-02-21T10:16:20;8.50;1.00
20182;DHT22;10250;50.756;6.172;2024-02-21T10:18:21;8.50;1.00
20182;DHT22;10250;50.756;6.172;2024-02-21T10:20:22;8.50;1.00
20182;DHT22;10250;50.756;6.172;2024-02-21T10:22:23;8.50;1.00
20182;DHT22;10250;50.756;6.172;2024-02-21T10:24:28;8.60;1.00
20182;DHT22;10250;50.756;6.172;2024-02-21T10:26:29;8.60;1.00
20182;DHT22;10250;50.756;6.172;2024-02-21T10:28:30;8.60;1.00
20182;DHT22;10250;50.756;6.172;2024-02-21T10:30:30;8.60;1.00
20182;DHT22;10250;50.756;6.172;2024-02-21T10:32:31;8.70;1.00
20182;DHT22;10250;50.756;6.172;2024-02-21T10:34:31;8.70;1.00
20182;DHT22;10250;50.756;6.172;2024-02-21T10:36:32;8.70;1.00
20182;DHT22;10250;50.756;6.172;2024-02-21T10:38:32;8.80;1.00
20182;DHT22;10250;50.756;6.172;2024-02-21T10:40:34;8.80;1.00
20182;DHT22;10250;50.756;6.172;2024-02-21T10:42:36;8.90;1.00
20182;DHT22;10250;50.756;6.172;2024-02-21T10:44:39;8.90;1.00
20182;DHT22;10250;50.756;6.172;2024-02-21T10:46:42;8.90;99.90
20182;DHT22;10250;50.756;6.172;2024-02-21T10:48:44;8.90;99.90
20182;DHT22;10250;50.756;6.172;2024-02-21T10:51:07;8.90;99.90
20182;DHT22;10250;50.756;6.172;2024-02-21T10:55:38;9.00;99.90
20182;DHT22;10250;50.756;6.172;2024-02-21T10:57:42;9.10;99.90
20182;DHT22;10250;50.756;6.172;2024-02-21T10:59:44;9.10;99.90
20182;DHT22;10250;50.756;6.172;2024-02-21T11:01:45;9.10;99.90
20182;DHT22;10250;50.756;6.172;2024-02-21T11:03:47;9.10;99.90
20182;DHT22;10250;50.756;6.172;2024-02-21T11:05:49;9.20;99.90
20182;DHT22;10250;50.756;6.172;2024-02-21T11:07:51;9.20;99.90
20182;DHT22;10250;50.756;6.172;2024-02-21T11:09:53;9.20;99.90
20182;DHT22;10250;50.756;6.172;2024-02-21T11:11:56;9.30;99.90
20182;DHT22;10250;50.756;6.172;2024-02-21T11:16:10;9.30;99.90
20182;DHT22;10250;50.756;6.172;2024-02-21T11:18:11;9.30;99.90
20182;DHT22;10250;50.756;6.172;2024-02-21T11:20:13;9.30;99.90
20182;DHT22;10250;50.756;6.172;2024-02-21T11:22:20;9.40;99.90
20182;DHT22;10250;50.756;6.172;2024-02-21T11:24:29;9.40;99.90
20182;DHT22;10250;50.756;6.172;2024-02-21T11:26:30;9.40;99.90
20182;DHT22;10250;50.756;6.172;2024-02-21T11:28:32;9.40;99.90
20182;DHT22;10250;50.756;6.172;2024-02-21T11:30:35;9.40;99.90
20182;DHT22;10250;50.756;6.172;2024-02-21T11:32:36;9.40;99.90
20182;DHT22;10250;50.756;6.172;2024-02-21T11:34:37;9.50;99.90
20182;DHT22;10250;50.756;6.172;2024-02-21T11:36:47;9.50;99.90
20182;DHT22;10250;50.756;6.172;2024-02-21T11:38:49;9.50;99.90
20182;DHT22;10250;50.756;6.172;2024-02-21T11:40:50;9.50;99.90
20182;DHT22;10250;50.756;6.172;2024-02-21T11:42:50;9.60;99.90
20182;DHT22;10250;50.756;6.172;2024-02-21T11:44:51;9.60;99.90
20182;DHT22;10250;50.756;6.172;2024-02-21T11:46:52;9.60;99.90
20182;DHT22;10250;50.756;6.172;2024-02-21T11:48:53;9.60;99.90
20182;DHT22;10250;50.756;6.172;2024-02-21T11:50:55;9.60;99.90
20182;DHT22;10250;50.756;6.172;2024-02-21T11:52:56;9.50;99.90
20182;DHT22;10250;50.756;6.172;2024-02-21T11:54:57;9.50;99.90
20182;DHT22;10250;50.756;6.172;2024-02-21T11:57:04;9.60;99.90
20182;DHT22;10250;50.756;6.172;2024-02-21T11:59:05;9.60;99.90
20182;DHT22;10250;50.756;6.172;2024-02-21T12:01:07;9.60;99.90
20182;DHT22;10250;50.756;6.172;2024-02-21T12:03:07;9.60;99.90
20182;DHT22;10250;50.756;6.172;2024-02-21T12:05:09;9.60;99.90
20182;DHT22;10250;50.756;6.172;2024-02-21T12:07:10;9.60;99.90
20182;DHT22;10250;50.756;6.172;2024-02-21T12:09:14;9.60;99.90
20182;DHT22;10250;50.756;6.172;2024-02-21T12:11:21;9.70;99.90
20182;DHT22;10250;50.756;6.172;2024-02-21T12:13:25;9.80;99.90
20182;DHT22;10250;50.756;6.172;2024-02-21T12:15:25;9.80;99.90
20182;DHT22;10250;50.756;6.172;2024-02-21T12:17:26;9.80;99.90
20182;DHT22;10250;50.756;6.172;2024-02-21T12:19:29;9.90;99.90
20182;DHT22;10250;50.756;6.172;2024-02-21T12:21:31;9.90;99.90
20182;DHT22;10250;50.756;6.172;2024-02-21T12:23:33;10.00;99.90
20182;DHT22;10250;50.756;6.172;2024-02-21T12:25:33;10.00;99.90
20182;DHT22;10250;50.756;6.172;2024-02-21T12:27:34;10.10;99.90
20182;DHT22;10250;50.756;6.172;2024-02-21T12:29:35;10.20;99.90
20182;DHT22;10250;50.756;6.172;2024-02-21T12:31:39;10.20;99.90
20182;DHT22;10250;50.756;6.172;2024-02-21T12:33:40;10.20;99.90
20182;DHT22;10250;50.756;6.172;2024-02-21T12:35:40;10.30;99.90
20182;DHT22;10250;50.756;6.172;2024-02-21T12:37:41;10.30;99.90
20182;DHT22;10250;50.756;6.172;2024-02-21T12:39:42;10.40;99.90
20182;DHT22;10250;50.756;6.172;2024-02-21T12:41:42;10.40;99.90
20182;DHT22;10250;50.756;6.172;2024-02-21T12:43:44;10.50;99.90
20182;DHT22;10250;50.756;6.172;2024-02-21T12:45:45;10.50;99.90
20182;DHT22;10250;50.756;6.172;2024-02-21T12:47:45;10.50;99.90
20182;DHT22;10250;50.756;6.172;2024-02-21T12:49:46;10.50;99.90
20182;DHT22;10250;50.756;6.172;2024-02-21T12:51:46;10.50;99.90
20182;DHT22;10250;50.756;6.172;2024-02-21T12:53:48;10.50;99.90
20182;DHT22;10250;50.756;6.172;2024-02-21T12:55:50;10.50;99.90
20182;DHT22;10250;50.756;6.172;2024-02-21T12:57:51;10.60;99.90
20182;DHT22;10250;50.756;6.172;2024-02-21T12:59:51;10.60;99.90
20182;DHT22;10250;50.756;6.172;2024-02-21T13:01:52;10.60;99.90
20182;DHT22;10250;50.756;6.172;2024-02-21T13:03:53;10.60;99.90
20182;DHT22;10250;50.756;6.172;2024-02-21T13:05:54;10.60;99.90